createdAt,value
2019-02-24T00:00:43.143Z,4.97
2019-02-24T00:05:38.827Z,5.40
2019-02-24T00:15:30.538Z,4.00
2019-02-24T00:20:26.249Z,3.97
2019-02-24T00:25:22.961Z,4.37
2019-02-24T00:30:18.668Z,4.63
2019-02-24T00:40:10.185Z,4.17
2019-02-24T00:45:06.581Z,4.53
2019-02-24T00:50:03.093Z,4.60
2019-02-24T00:54:58.775Z,4.47
2019-02-24T00:59:54.635Z,4.10
2019-02-24T01:04:50.326Z,4.23
2019-02-24T01:09:46.224Z,3.67
2019-02-24T01:14:41.925Z,4.70
2019-02-24T01:19:37.931Z,4.97
2019-02-24T01:24:33.619Z,5.20
2019-02-24T01:29:30.661Z,5.37
2019-02-24T01:34:26.607Z,4.73
2019-02-24T01:39:22.527Z,4.67
2019-02-24T01:44:18.528Z,5.30
2019-02-24T01:49:14.622Z,5.13
2019-02-24T01:54:10.307Z,5.23
2019-02-24T01:59:06.155Z,5.20
2019-02-24T02:04:01.853Z,4.67
2019-02-24T02:08:57.715Z,5.60
2019-02-24T02:13:53.399Z,5.23
2019-02-24T02:18:49.479Z,5.27
2019-02-24T02:23:45.145Z,5.27
2019-02-24T02:28:43.998Z,5.40
2019-02-24T02:33:40.182Z,5.03
2019-02-24T02:38:36.410Z,5.00
2019-02-24T02:43:32.082Z,5.13
2019-02-24T02:48:28.001Z,4.77
2019-02-24T02:53:23.690Z,4.30
2019-02-24T02:58:20.333Z,4.73
2019-02-24T03:03:16.009Z,4.73
2019-02-24T03:08:14.165Z,4.13
2019-02-24T03:13:09.914Z,5.00
2019-02-24T03:18:06.382Z,4.50
2019-02-24T03:23:02.076Z,4.90
2019-02-24T03:27:58.036Z,5.27
2019-02-24T03:32:53.973Z,5.27
2019-02-24T03:37:51.343Z,4.97
2019-02-24T03:42:47.021Z,4.33
2019-02-24T03:47:43.055Z,4.63
2019-02-24T03:52:38.989Z,4.37
2019-02-24T03:57:34.886Z,4.63
2019-02-24T04:02:30.655Z,4.43
2019-02-24T04:07:26.531Z,4.63
2019-02-24T04:12:22.210Z,4.20
2019-02-24T04:17:18.103Z,4.67
2019-02-24T04:22:13.769Z,4.23
2019-02-24T04:27:11.682Z,4.07
2019-02-24T04:32:07.246Z,4.47
2019-02-24T04:37:03.144Z,4.77
2019-02-24T04:41:59.670Z,4.73
2019-02-24T04:46:55.518Z,5.00
2019-02-24T04:51:51.448Z,4.70
2019-02-24T04:56:47.327Z,4.80
2019-02-24T05:01:42.999Z,4.43
2019-02-24T05:06:38.944Z,4.40
2019-02-24T05:11:34.873Z,4.80
2019-02-24T05:16:30.879Z,4.17
2019-02-24T05:21:27.479Z,4.43
2019-02-24T05:26:23.635Z,4.87
2019-02-24T05:31:19.569Z,4.60
2019-02-24T05:36:15.450Z,4.10
2019-02-24T05:41:11.126Z,4.17
2019-02-24T05:46:07.913Z,4.27
2019-02-24T05:51:03.592Z,4.60
2019-02-24T05:55:59.894Z,5.07
2019-02-24T06:00:55.579Z,4.30
2019-02-24T06:05:51.687Z,4.23
2019-02-24T06:10:47.367Z,4.17
2019-02-24T06:15:43.468Z,3.93
2019-02-24T06:20:39.127Z,3.67
2019-02-24T06:25:35.321Z,4.60
2019-02-24T06:30:37.659Z,4.40
2019-02-24T06:35:33.448Z,4.40
2019-02-24T06:45:25.080Z,3.93
2019-02-24T06:50:20.822Z,4.63
2019-02-24T06:55:17.099Z,4.60
2019-02-24T07:00:14.402Z,4.03
2019-02-24T07:05:10.301Z,4.70
2019-02-24T07:10:06.361Z,5.27
2019-02-24T07:15:03.255Z,7.30
2019-02-24T07:19:59.031Z,6.70
2019-02-24T07:24:55.441Z,5.13
2019-02-24T07:29:52.128Z,5.50
2019-02-24T07:34:48.162Z,5.57
2019-02-24T07:39:43.912Z,8.57
2019-02-24T07:44:39.927Z,9.60
2019-02-24T07:49:35.599Z,5.30
2019-02-24T07:54:31.605Z,9.03
2019-02-24T07:59:27.274Z,8.63
2019-02-24T08:04:23.129Z,8.53
2019-02-24T08:09:18.985Z,10.40
2019-02-24T08:14:14.761Z,7.67
2019-02-24T08:19:10.634Z,9.77
2019-02-24T08:24:06.320Z,7.80
2019-02-24T08:29:02.189Z,6.87
2019-02-24T08:33:58.605Z,6.97
2019-02-24T08:38:54.500Z,5.80
2019-02-24T08:43:50.200Z,6.10
2019-02-24T08:48:46.329Z,5.60
2019-02-24T08:53:42.318Z,5.20
2019-02-24T08:58:38.000Z,4.90
2019-02-24T09:03:34.007Z,5.40
2019-02-24T09:08:29.795Z,5.00
2019-02-24T09:13:25.762Z,4.53
2019-02-24T09:18:21.446Z,4.30
2019-02-24T09:23:17.343Z,4.50
2019-02-24T09:28:13.136Z,4.50
2019-02-24T09:33:09.049Z,4.50
2019-02-24T09:38:05.337Z,4.10
2019-02-24T09:43:01.260Z,4.13
2019-02-24T09:47:57.315Z,5.60
2019-02-24T09:52:53.296Z,5.73
2019-02-24T09:57:49.068Z,4.43
2019-02-24T10:02:45.160Z,4.60
2019-02-24T10:07:40.829Z,4.10
2019-02-24T10:12:36.960Z,4.10
2019-02-24T10:17:32.639Z,3.83
2019-02-24T10:22:28.887Z,3.97
2019-02-24T10:27:24.593Z,4.00
2019-02-24T10:32:20.660Z,4.40
2019-02-24T10:37:16.355Z,4.40
2019-02-24T10:42:12.963Z,4.40
2019-02-24T10:47:08.655Z,4.17
2019-02-24T10:52:04.525Z,4.17
2019-02-24T10:57:00.605Z,4.35
2019-02-24T11:01:56.296Z,4.50
2019-02-24T11:06:52.168Z,4.13
2019-02-24T11:11:47.859Z,4.70
2019-02-24T11:16:43.625Z,4.93
2019-02-24T11:21:39.300Z,5.00
2019-02-24T11:26:35.170Z,4.80
2019-02-24T11:31:38.166Z,5.03
2019-02-24T11:36:28.732Z,6.07
2019-02-24T11:41:24.429Z,5.40
2019-02-24T11:46:20.622Z,5.33
2019-02-24T11:51:16.319Z,6.25
2019-02-24T11:56:12.155Z,6.50
2019-02-24T12:01:07.905Z,7.42
2019-02-24T12:06:03.870Z,6.70
2019-02-24T12:10:59.863Z,6.70
2019-02-24T12:15:55.965Z,7.20
2019-02-24T12:20:51.651Z,6.25
2019-02-24T12:25:47.519Z,6.70
2019-02-24T12:30:43.345Z,6.53
2019-02-24T12:35:39.214Z,6.50
2019-02-24T12:40:35.151Z,5.62
2019-02-24T12:45:31.360Z,5.75
2019-02-24T12:50:28.805Z,6.15
2019-02-24T12:55:24.709Z,4.95
2019-02-24T13:00:21.377Z,6.00
2019-02-24T13:05:17.272Z,5.67
2019-02-24T13:10:14.295Z,6.10
2019-02-24T13:15:10.348Z,5.37
2019-02-24T13:20:07.413Z,5.45
2019-02-24T13:25:03.883Z,5.95
2019-02-24T13:29:59.571Z,6.03
2019-02-24T13:34:55.849Z,5.87
2019-02-24T13:39:51.779Z,6.67
2019-02-24T13:44:47.927Z,6.55
2019-02-24T13:49:43.705Z,5.85
2019-02-24T13:54:40.241Z,5.40
2019-02-24T13:59:36.175Z,5.47
2019-02-24T14:04:31.932Z,5.55
2019-02-24T14:09:27.619Z,5.25
2019-02-24T14:14:23.764Z,4.80
2019-02-24T14:19:19.724Z,5.17
2019-02-24T14:24:15.604Z,4.97
2019-02-24T14:29:11.296Z,4.53
2019-02-24T14:34:07.051Z,3.85
2019-02-24T14:39:03.788Z,3.60
2019-02-24T14:43:59.976Z,3.83
2019-02-24T14:48:55.748Z,3.98
2019-02-24T14:53:51.636Z,3.27
2019-02-24T14:58:47.543Z,3.27
2019-02-24T15:03:43.520Z,3.37
2019-02-24T15:08:39.220Z,3.50
2019-02-24T15:13:34.993Z,3.10
2019-02-24T15:18:30.757Z,3.13
2019-02-24T15:23:26.858Z,3.00
2019-02-24T15:28:22.541Z,3.37
2019-02-24T15:33:18.309Z,3.10
2019-02-24T15:38:14.393Z,3.20
2019-02-24T15:43:10.356Z,3.50
2019-02-24T15:48:06.045Z,3.50
2019-02-24T15:53:02.254Z,2.93
2019-02-24T15:57:57.925Z,3.17
2019-02-24T16:03:00.953Z,3.23
2019-02-24T16:07:52.144Z,3.20
2019-02-24T16:12:48.156Z,3.60
2019-02-24T16:17:44.823Z,4.00
2019-02-24T16:22:40.701Z,3.27
2019-02-24T16:27:36.376Z,3.23
2019-02-24T16:32:32.623Z,3.00
2019-02-24T16:37:28.561Z,3.30
2019-02-24T16:42:24.509Z,3.07
2019-02-24T16:47:20.482Z,3.00
2019-02-24T16:52:16.456Z,2.97
2019-02-24T16:57:12.144Z,2.40
2019-02-24T17:02:08.097Z,3.40
2019-02-24T17:07:03.926Z,2.57
2019-02-24T17:11:59.863Z,2.43
2019-02-24T17:17:01.561Z,2.57
2019-02-24T17:21:53.570Z,2.60
2019-02-24T17:26:49.530Z,2.63
2019-02-24T17:31:45.264Z,2.27
2019-02-24T17:36:41.051Z,2.57
2019-02-24T17:41:36.862Z,2.57
2019-02-24T17:46:32.881Z,2.63
2019-02-24T17:51:29.032Z,2.93
2019-02-24T17:56:25.015Z,2.20
2019-02-24T18:01:21.121Z,2.07
2019-02-24T18:06:16.795Z,2.43
2019-02-24T18:11:13.014Z,2.63
2019-02-24T18:16:08.699Z,2.83
2019-02-24T18:21:06.530Z,2.50
2019-02-24T18:26:02.433Z,2.47
2019-02-24T18:30:58.530Z,2.40
2019-02-24T18:35:54.457Z,2.40
2019-02-24T18:40:50.421Z,2.60
2019-02-24T18:45:46.090Z,3.00
2019-02-24T18:50:42.594Z,3.10
2019-02-24T18:55:38.399Z,3.70
2019-02-24T19:00:34.355Z,4.07
2019-02-24T19:05:30.029Z,2.80
2019-02-24T19:10:25.945Z,4.90
2019-02-24T19:15:23.541Z,3.50
2019-02-24T19:20:20.351Z,3.07
2019-02-24T19:25:16.257Z,2.53
2019-02-24T19:30:15.702Z,3.07
2019-02-24T19:35:12.181Z,2.70
2019-02-24T19:40:09.431Z,2.93
2019-02-24T19:45:06.964Z,3.00
2019-02-24T19:50:04.153Z,3.20
2019-02-24T19:55:00.261Z,2.70
2019-02-24T19:59:56.289Z,3.30
2019-02-24T20:04:51.972Z,6.07
2019-02-24T20:09:47.899Z,5.73
2019-02-24T20:14:43.606Z,4.83
2019-02-24T20:19:39.593Z,3.60
2019-02-24T20:24:35.331Z,3.50
2019-02-24T20:29:31.865Z,3.20
2019-02-24T20:34:27.535Z,3.17
2019-02-24T20:39:23.523Z,3.20
2019-02-24T20:44:19.494Z,2.87
2019-02-24T20:49:15.527Z,3.20
2019-02-24T20:54:11.367Z,2.90
2019-02-24T20:59:07.249Z,2.93
2019-02-24T21:04:02.962Z,2.40
2019-02-24T21:08:58.947Z,3.00
2019-02-24T21:13:54.630Z,3.13
2019-02-24T21:18:50.379Z,3.30
2019-02-24T21:23:46.076Z,3.20
2019-02-24T21:28:41.956Z,3.10
2019-02-24T21:33:37.675Z,3.10
2019-02-24T21:38:33.751Z,3.10
2019-02-24T21:43:29.618Z,3.33
2019-02-24T21:48:25.497Z,3.10
2019-02-24T21:53:21.983Z,3.30
2019-02-24T21:58:17.878Z,3.67
2019-02-24T22:03:13.807Z,3.47
2019-02-24T22:08:09.949Z,3.50
2019-02-24T22:13:05.626Z,4.00
2019-02-24T22:18:01.513Z,4.00
2019-02-24T22:22:57.187Z,4.57
2019-02-24T22:27:53.322Z,4.27
2019-02-24T22:32:49.150Z,3.57
2019-02-24T22:37:45.207Z,4.10
2019-02-24T22:42:42.166Z,5.20
2019-02-24T22:47:38.034Z,4.60
2019-02-24T22:52:33.807Z,4.83
2019-02-24T22:57:29.718Z,4.27
2019-02-24T23:02:25.493Z,4.93
2019-02-24T23:07:21.905Z,4.13
2019-02-24T23:12:17.841Z,4.17
2019-02-24T23:17:13.733Z,4.63
2019-02-24T23:22:09.693Z,4.20
2019-02-24T23:27:05.588Z,4.30
2019-02-24T23:32:01.521Z,3.93
2019-02-24T23:36:57.645Z,3.93
2019-02-24T23:41:53.342Z,4.30
2019-02-24T23:46:49.469Z,4.03
2019-02-24T23:51:45.503Z,4.53
2019-02-24T23:56:41.359Z,4.33
